Decoded Metar for KHDN (HAYDEN/YAMPA in CO, USA) (IATA:HDN) | Meteo·Mobile Aviation Weather
aviador You're here:

KHDN Decoded Metar

HAYDEN/YAMPA in CO, USA
Report Time2018-10-19 18:56:00
UTC Time2018-10-19 19:26:29
Flight Rules vfr VFR
Wind320° at 04 kt
W.Decomp.*RWY 28: 3.5 kt HW 2.0 kt RCW
W.Rank320° ranks 22
Current wind is below 320° avg. (9.1)
Visibility9999 m
Phenomena:N/A
Clouds:N/A
Expected CloudBase > 4,000 ft AGL from Temp-Dew spread
CeilingNone
Temp11°C (ISA +9)
Dew Point01°C (50% RH)
AAT7.7°C
QNH1032 hPa
Density Alt7,133 ft
Elevation6,601 ft
Report Wrong Elevation
Raw Report
KHDN 191856Z AUTO 32004KT 10SM CLR 11/01 A3047 RMK AO2 SLP304
T01060011=

Extra information for KHDN:More info

Metar Taf Metar & Taf Last 4 Metars F.Rules Stats Wind Profile Meteogram Temp Stats Airport Information Weather charts Add Link Nearby VenuesMetar ALERT Operation Metar Decoded Social comments

AIRNAV info for KHDN